Time,TemperatureF,DewpointF,PressureIn,WindDirection,WindDirectionDegrees,WindSpeedMPH,WindSpeedGustMPH,Humidity,HourlyPrecipIn,Conditions,Clouds,dailyrainin,SoftwareType,DateUTC
2013-07-15 07:43:00,60.0,54.0,-100.00,SE,124,14.0,20.0,82,0.00,,,-99.99,,2013-07-15 13:43:00,
2013-07-15 08:11:00,61.0,54.0,-100.00,SE,126,16.0,23.0,77,0.00,,,-99.99,,2013-07-15 14:11:00,
2013-07-15 08:33:00,62.0,54.0,-100.00,ESE,120,16.0,21.0,75,0.00,,,-99.99,,2013-07-15 14:33:00,
2013-07-15 08:42:00,62.0,54.0,-100.00,ESE,123,18.0,25.0,74,0.00,,,-99.99,,2013-07-15 14:42:00,
2013-07-15 09:15:00,64.0,54.0,-100.00,ESE,120,17.0,25.0,70,0.00,,,-99.99,,2013-07-15 15:15:00,
2013-07-15 09:45:00,64.0,54.0,-100.00,ESE,117,18.0,23.0,69,0.00,,,-99.99,,2013-07-15 15:45:00,
2013-07-15 10:44:00,67.0,55.0,-100.00,SE,124,15.0,22.0,65,0.00,,,-99.99,,2013-07-15 16:44:00,
2013-07-15 11:03:00,67.0,54.0,-100.00,ESE,119,14.0,21.0,62,0.00,,,-99.99,,2013-07-15 17:03:00,
2013-07-15 12:45:00,72.0,54.0,-100.00,ESE,104,10.0,19.0,53,0.00,,,-99.99,,2013-07-15 18:45:00,
2013-07-15 13:45:00,71.0,52.0,-100.00,ESE,112,9.0,14.0,51,0.00,,,-99.99,,2013-07-15 19:45:00,
2013-07-15 14:43:00,72.0,52.0,-100.00,East,97,11.0,19.0,49,0.00,,,-99.99,,2013-07-15 20:43:00,
2013-07-15 15:46:00,74.0,50.0,-100.00,ESE,116,11.0,17.0,43,0.00,,,-99.99,,2013-07-15 21:46:00,
2013-07-15 16:02:00,75.0,48.0,-100.00,East,86,8.0,17.0,38,0.00,,,-99.99,,2013-07-15 22:02:00,
2013-07-15 16:43:00,74.0,51.0,-100.00,ESE,110,14.0,22.0,44,0.00,,,-99.99,,2013-07-15 22:43:00,
2013-07-15 16:54:00,74.0,50.0,-100.00,East,99,14.0,22.0,43,0.00,,,-99.99,,2013-07-15 22:54:00,
2013-07-15 17:04:00,74.0,51.0,-100.00,East,93,14.0,22.0,45,0.00,,,-99.99,,2013-07-15 23:04:00,
2013-07-15 17:13:00,73.0,53.0,-100.00,East,92,15.0,26.0,48,0.00,,,-99.99,,2013-07-15 23:13:00,
2013-07-15 17:25:00,74.0,53.0,-100.00,East,99,14.0,26.0,47,0.00,,,-99.99,,2013-07-15 23:25:00,
2013-07-15 17:45:00,74.0,54.0,-100.00,ESE,103,16.0,26.0,51,0.00,,,-99.99,,2013-07-15 23:45:00,
2013-07-15 17:53:00,73.0,53.0,-100.00,East,97,15.0,21.0,50,0.00,,,-99.99,,2013-07-15 23:53:00,
2013-07-15 18:03:00,72.0,54.0,-100.00,ESE,106,17.0,24.0,52,0.00,,,-99.99,,2013-07-16 00:03:00,
2013-07-15 18:45:00,71.0,54.0,-100.00,East,92,14.0,22.0,56,0.00,,,-99.99,,2013-07-16 00:45:00,
2013-07-15 19:05:00,69.0,55.0,-100.00,East,100,16.0,22.0,61,0.00,,,-99.99,,2013-07-16 01:05:00,
2013-07-15 19:14:00,69.0,55.0,-100.00,East,92,14.0,23.0,62,0.00,,,-99.99,,2013-07-16 01:14:00,
2013-07-15 19:46:00,68.0,56.0,-100.00,ESE,107,17.0,22.0,65,0.00,,,-99.99,,2013-07-16 01:46:00,
2013-07-15 20:46:00,64.0,54.0,-100.00,ESE,104,16.0,22.0,71,0.00,,,-99.99,,2013-07-16 02:46:00,
2013-07-15 22:43:00,59.0,54.0,-100.00,ESE,123,13.0,17.0,84,0.00,,,-99.99,,2013-07-16 04:43:00,
2013-07-15 23:43:00,59.0,52.0,-100.00,SE,130,15.0,19.0,78,0.00,,,-99.99,,2013-07-16 05:43:00,